createdAt,value
2018-11-20T00:03:05.897Z,96994.03
2018-11-20T00:05:54.160Z,97002.09
2018-11-20T00:09:01.536Z,96996.53
2018-11-20T00:12:09.010Z,96996.03
2018-11-20T00:15:16.266Z,97004.49
2018-11-20T00:18:23.670Z,96999.77
2018-11-20T00:23:51.898Z,97005.17
2018-11-20T00:29:34.069Z,96995.55
2018-11-20T00:32:41.867Z,96990.66
2018-11-20T00:35:30.126Z,96989.31
2018-11-20T00:41:11.750Z,96982.73
2018-11-20T00:43:59.919Z,96974.84
2018-11-20T00:47:07.186Z,96975.36
2018-11-20T00:50:15.783Z,96979.23
2018-11-20T00:53:23.240Z,96980.58
2018-11-20T00:59:33.708Z,96975.86
2018-11-20T01:02:21.706Z,96972.82
2018-11-20T01:05:29.131Z,96967.94
2018-11-20T01:08:36.379Z,96964.73
2018-11-20T01:11:24.555Z,96958.33
2018-11-20T01:14:32.245Z,96954.28
2018-11-20T01:17:20.689Z,96954.28
2018-11-20T01:20:27.878Z,96952.92
2018-11-20T01:26:09.648Z,96958.53
2018-11-20T01:28:57.822Z,96962.06
2018-11-20T01:34:26.524Z,96961.90
2018-11-20T01:37:14.828Z,96962.57
2018-11-20T01:40:21.989Z,96952.80
2018-11-20T01:43:10.247Z,96950.60
2018-11-20T01:48:52.036Z,96942.51
2018-11-20T01:51:59.650Z,96939.98
2018-11-20T01:54:47.724Z,96937.79
2018-11-20T01:57:55.635Z,96937.11
2018-11-20T02:00:43.638Z,96938.46
2018-11-20T02:03:50.944Z,96927.17
2018-11-20T02:06:39.061Z,96919.08
2018-11-20T02:09:28.002Z,96919.95
2018-11-20T02:12:35.243Z,96910.01
2018-11-20T02:15:23.323Z,96908.32
2018-11-20T02:18:16.295Z,96911.02
2018-11-20T02:21:04.370Z,96897.70
2018-11-20T02:24:02.163Z,96891.63
2018-11-20T02:26:50.414Z,96885.06
2018-11-20T02:32:27.343Z,96885.91
2018-11-20T02:35:15.416Z,96884.72
2018-11-20T02:38:22.710Z,96877.68
2018-11-20T02:41:30.100Z,96871.58
2018-11-20T02:44:37.409Z,96862.34
2018-11-20T02:47:25.477Z,96850.38
2018-11-20T02:50:07.990Z,96850.20
2018-11-20T02:53:17.956Z,96844.65
2018-11-20T02:58:59.327Z,96849.37
2018-11-20T03:07:08.854Z,96838.70
2018-11-20T03:09:56.978Z,96852.06
2018-11-20T03:12:38.445Z,96860.33
2018-11-20T03:15:45.767Z,96864.03
2018-11-20T03:18:33.876Z,96867.57
2018-11-20T03:21:41.139Z,96868.41
2018-11-20T03:24:29.296Z,96869.59
2018-11-20T03:27:08.617Z,96863.05
2018-11-20T03:33:13.922Z,96848.36
2018-11-20T03:38:42.302Z,96832.38
2018-11-20T03:41:30.198Z,96828.85
2018-11-20T03:44:37.373Z,96833.56
2018-11-20T03:47:25.514Z,96840.14
2018-11-20T03:50:13.580Z,96832.73
2018-11-20T03:53:01.894Z,96823.95
2018-11-20T03:55:49.882Z,96824.94
2018-11-20T03:58:37.809Z,96817.69
2018-11-20T04:01:26.105Z,96816.20
2018-11-20T04:04:13.897Z,96810.27
2018-11-20T04:07:01.855Z,96816.84
2018-11-20T04:12:30.135Z,96804.71
2018-11-20T04:15:37.385Z,96793.24
2018-11-20T04:18:44.705Z,96782.97
2018-11-20T04:24:39.575Z,96764.59
2018-11-20T04:27:46.886Z,96757.52
2018-11-20T04:31:09.964Z,96761.22
2018-11-20T04:36:55.641Z,96757.17
2018-11-20T04:39:43.831Z,96764.93
2018-11-20T04:42:31.771Z,96766.11
2018-11-20T04:45:19.681Z,96755.66
2018-11-20T04:48:07.578Z,96759.88
2018-11-20T04:51:14.826Z,96758.86
2018-11-20T04:54:03.051Z,96764.59
2018-11-20T04:57:10.275Z,96760.54
2018-11-20T04:59:58.363Z,96753.97
2018-11-20T05:02:46.250Z,96768.63
2018-11-20T05:05:34.285Z,96767.95
2018-11-20T05:08:22.225Z,96763.23
2018-11-20T05:11:11.316Z,96762.23
2018-11-20T05:16:57.387Z,96760.03
2018-11-20T05:19:58.093Z,96759.03
2018-11-20T05:22:46.103Z,96756.67
2018-11-20T05:25:53.272Z,96757.84
2018-11-20T05:28:41.314Z,96752.12
2018-11-20T05:31:29.279Z,96746.05
2018-11-20T05:37:29.416Z,96731.39
2018-11-20T05:40:17.379Z,96734.14
2018-11-20T05:43:05.332Z,96735.61
2018-11-20T05:45:53.309Z,96736.27
2018-11-20T05:48:39.734Z,96729.02
2018-11-20T05:51:46.845Z,96728.84
2018-11-20T05:54:34.873Z,96725.95
2018-11-20T05:57:23.037Z,96730.48
2018-11-20T06:00:11.179Z,96732.63
2018-11-20T06:02:59.182Z,96731.28
2018-11-20T06:05:47.587Z,96721.84
2018-11-20T06:08:35.600Z,96724.19
2018-11-20T06:11:25.190Z,96719.64
2018-11-20T06:14:14.828Z,96731.37
2018-11-20T06:19:56.714Z,96729.06
2018-11-20T06:22:44.708Z,96720.25
2018-11-20T06:25:44.801Z,96725.98
2018-11-20T06:28:45.126Z,96722.58
2018-11-20T06:31:33.074Z,96727.93
2018-11-20T06:34:21.252Z,96722.02
2018-11-20T06:37:09.599Z,96719.13
2018-11-20T06:39:57.760Z,96722.97
2018-11-20T06:43:04.927Z,96716.71
2018-11-20T06:45:52.984Z,96719.42
2018-11-20T06:49:00.180Z,96705.93
2018-11-20T06:51:48.416Z,96706.28
2018-11-20T06:57:16.711Z,96715.50
2018-11-20T07:00:04.812Z,96715.94
2018-11-20T07:03:08.439Z,96710.38
2018-11-20T07:05:56.271Z,96720.94
2018-11-20T07:09:03.456Z,96724.16
2018-11-20T07:12:10.607Z,96719.72
2018-11-20T07:15:18.057Z,96722.73
2018-11-20T07:18:25.225Z,96719.04
2018-11-20T07:21:30.825Z,96717.84
2018-11-20T07:24:31.255Z,96717.69
2018-11-20T07:27:21.623Z,96724.92
2018-11-20T07:30:28.834Z,96713.97
2018-11-20T07:33:16.758Z,96720.37
2018-11-20T07:36:24.443Z,96719.19
2018-11-20T07:39:12.794Z,96728.59
2018-11-20T07:41:54.006Z,96723.02
2018-11-20T07:44:48.230Z,96720.19
2018-11-20T07:47:36.187Z,96725.78
2018-11-20T07:50:24.428Z,96729.09
2018-11-20T07:53:14.686Z,96722.55
2018-11-20T07:58:56.416Z,96727.62
2018-11-20T08:01:44.532Z,96734.38
2018-11-20T08:04:32.585Z,96729.76
2018-11-20T08:07:10.337Z,96731.16
2018-11-20T08:10:17.584Z,96728.12
2018-11-20T08:13:05.585Z,96726.39
2018-11-20T08:16:06.315Z,96716.95
2018-11-20T08:19:03.045Z,96717.16
2018-11-20T08:21:50.934Z,96717.61
2018-11-20T08:24:38.931Z,96711.76
2018-11-20T08:27:27.091Z,96705.34
2018-11-20T08:30:14.647Z,96705.47
2018-11-20T08:32:55.181Z,96707.50
2018-11-20T08:36:02.582Z,96706.56
2018-11-20T08:38:50.908Z,96703.41
2018-11-20T08:41:39.016Z,96697.50
2018-11-20T08:44:27.094Z,96696.53
2018-11-20T08:47:34.377Z,96696.02
2018-11-20T08:50:22.372Z,96695.41
2018-11-20T08:53:29.674Z,96695.23
2018-11-20T08:56:37.076Z,96685.63
2018-11-20T08:59:24.985Z,96698.80
2018-11-20T09:02:13.304Z,96704.68
2018-11-20T09:05:14.090Z,96695.23
2018-11-20T09:08:02.062Z,96686.66
2018-11-20T09:11:05.688Z,96691.72
2018-11-20T09:13:53.501Z,96685.45
2018-11-20T09:17:00.686Z,96689.35
2018-11-20T09:20:07.850Z,96684.80
2018-11-20T09:23:14.973Z,96685.30
2018-11-20T09:26:03.176Z,96691.36
2018-11-20T09:28:51.257Z,96697.09
2018-11-20T09:31:39.665Z,96693.73
2018-11-20T09:34:46.986Z,96692.38
2018-11-20T09:37:35.118Z,96697.27
2018-11-20T09:41:01.475Z,96703.86
2018-11-20T09:44:13.672Z,96707.38
2018-11-20T09:47:01.858Z,96711.61
2018-11-20T09:49:50.046Z,96700.66
2018-11-20T09:52:38.032Z,96704.68
2018-11-20T09:58:21.669Z,96698.05
2018-11-20T10:01:31.286Z,96695.35
2018-11-20T10:04:19.439Z,96686.30
2018-11-20T10:07:07.469Z,96685.91
2018-11-20T10:09:55.522Z,96687.92
2018-11-20T10:15:37.226Z,96685.10
2018-11-20T10:18:44.369Z,96694.01
2018-11-20T10:21:32.422Z,96689.53
2018-11-20T10:27:00.678Z,96686.16
2018-11-20T10:29:49.546Z,96670.92
2018-11-20T10:32:37.982Z,96665.80
2018-11-20T10:35:25.167Z,96659.52
2018-11-20T10:38:13.236Z,96653.73
2018-11-20T10:41:01.678Z,96658.08
2018-11-20T10:43:49.580Z,96655.02
2018-11-20T10:46:36.247Z,96649.01
2018-11-20T10:49:24.132Z,96648.72
2018-11-20T10:55:25.210Z,96648.95
2018-11-20T10:58:14.251Z,96647.16
2018-11-20T11:01:03.705Z,96639.89
2018-11-20T11:04:03.836Z,96634.93
2018-11-20T11:06:52.347Z,96633.28
2018-11-20T11:09:40.768Z,96629.73
2018-11-20T11:12:29.236Z,96641.02
2018-11-20T11:15:35.346Z,96620.98
2018-11-20T11:18:23.487Z,96620.86
2018-11-20T11:21:11.413Z,96626.01
2018-11-20T11:23:59.304Z,96618.22
2018-11-20T11:26:47.417Z,96609.04
2018-11-20T11:29:35.871Z,96609.47
2018-11-20T11:32:23.787Z,96611.28
2018-11-20T11:35:31.093Z,96603.23
2018-11-20T11:38:19.235Z,96602.66
2018-11-20T11:41:25.097Z,96603.31
2018-11-20T11:44:31.608Z,96605.05
2018-11-20T11:47:38.748Z,96599.55
2018-11-20T11:50:26.750Z,96596.14
2018-11-20T11:53:14.811Z,96586.67
2018-11-20T11:56:03.225Z,96593.61
2018-11-20T11:58:51.165Z,96593.28
2018-11-20T12:04:26.204Z,96600.59
2018-11-20T12:07:14.191Z,96592.23
2018-11-20T12:10:02.327Z,96599.61
2018-11-20T12:12:50.274Z,96597.03
2018-11-20T12:15:50.324Z,96588.72
2018-11-20T12:18:38.134Z,96590.78
2018-11-20T12:21:25.234Z,96595.34
2018-11-20T12:24:13.305Z,96593.44
2018-11-20T12:26:59.791Z,96590.31
2018-11-20T12:30:04.537Z,96585.22
2018-11-20T12:32:55.778Z,96582.51
2018-11-20T12:36:03.196Z,96577.03
2018-11-20T12:38:48.073Z,96585.25
2018-11-20T12:41:55.206Z,96581.41
2018-11-20T12:44:44.618Z,96581.61
2018-11-20T12:47:31.318Z,96583.16
2018-11-20T12:50:22.340Z,96582.45
2018-11-20T12:53:10.309Z,96590.92
2018-11-20T12:55:56.910Z,96586.77
2018-11-20T12:58:40.866Z,96581.90
2018-11-20T13:01:27.736Z,96584.38
2018-11-20T13:04:14.592Z,96581.83
2018-11-20T13:07:23.266Z,96586.50
2018-11-20T13:10:11.308Z,96579.48
2018-11-20T13:13:00.617Z,96588.25
2018-11-20T13:16:09.081Z,96584.31
2018-11-20T13:18:57.098Z,96589.86
2018-11-20T13:21:45.168Z,96592.98
2018-11-20T13:24:33.550Z,96593.63
2018-11-20T13:27:21.404Z,96590.27
2018-11-20T13:30:09.818Z,96598.08
2018-11-20T13:32:57.803Z,96594.07
2018-11-20T13:35:45.766Z,96597.62
2018-11-20T13:41:16.939Z,96590.03
2018-11-20T13:44:04.845Z,96588.75
2018-11-20T13:46:53.102Z,96594.17
2018-11-20T13:49:41.117Z,96595.42
2018-11-20T13:52:22.434Z,96589.49
2018-11-20T13:55:31.955Z,96585.84
2018-11-20T13:58:30.301Z,96586.87
2018-11-20T14:01:08.345Z,96583.78
2018-11-20T14:03:56.282Z,96582.62
2018-11-20T14:06:44.202Z,96581.88
2018-11-20T14:09:32.254Z,96568.11
2018-11-20T14:12:21.649Z,96563.45
2018-11-20T14:15:08.716Z,96560.75
2018-11-20T14:17:57.654Z,96557.97
2018-11-20T14:20:44.648Z,96548.67
2018-11-20T14:23:33.084Z,96536.80
2018-11-20T14:26:26.747Z,96538.57
2018-11-20T14:29:14.630Z,96541.16
2018-11-20T14:32:21.740Z,96530.50
2018-11-20T14:35:10.102Z,96531.06
2018-11-20T14:37:57.765Z,96529.71
2018-11-20T14:40:45.825Z,96532.22
2018-11-20T14:43:53.018Z,96536.80
2018-11-20T14:47:00.562Z,96531.78
2018-11-20T14:49:48.713Z,96539.73
2018-11-20T14:55:16.740Z,96530.44
2018-11-20T14:58:05.020Z,96527.85
2018-11-20T15:00:53.103Z,96529.94
2018-11-20T15:03:34.067Z,96526.71
2018-11-20T15:06:22.064Z,96525.86
2018-11-20T15:09:09.963Z,96524.38
2018-11-20T15:12:05.597Z,96520.24
2018-11-20T15:14:59.512Z,96537.23
2018-11-20T15:17:56.711Z,96541.09
2018-11-20T15:20:44.602Z,96535.79
2018-11-20T15:23:32.313Z,96536.62
2018-11-20T15:26:35.187Z,96540.89
2018-11-20T15:29:29.349Z,96546.63
2018-11-20T15:32:15.746Z,96550.44
2018-11-20T15:35:09.840Z,96551.60
2018-11-20T15:37:49.392Z,96554.95
2018-11-20T15:40:43.779Z,96558.06
2018-11-20T15:43:26.826Z,96555.97
2018-11-20T15:46:15.431Z,96559.41
2018-11-20T15:49:15.422Z,96552.77
2018-11-20T15:52:04.087Z,96556.83
2018-11-20T15:54:49.677Z,96560.55
2018-11-20T15:57:37.826Z,96559.00
2018-11-20T16:00:27.835Z,96558.16
2018-11-20T16:03:15.792Z,96563.90
2018-11-20T16:06:03.782Z,96562.84
2018-11-20T16:08:50.825Z,96567.73
2018-11-20T16:11:42.002Z,96568.38
2018-11-20T16:14:30.088Z,96568.25
2018-11-20T16:17:16.936Z,96568.55
2018-11-20T16:19:59.216Z,96573.91
2018-11-20T16:22:50.352Z,96574.42
2018-11-20T16:25:41.511Z,96571.39
2018-11-20T16:28:38.267Z,96572.94
2018-11-20T16:31:24.660Z,96564.19
2018-11-20T16:34:11.786Z,96564.42
2018-11-20T16:40:09.395Z,96571.06
2018-11-20T16:42:57.344Z,96570.36
2018-11-20T16:45:45.833Z,96580.42
2018-11-20T16:51:42.616Z,96583.13
2018-11-20T16:54:30.678Z,96586.17
2018-11-20T16:57:18.788Z,96594.07
2018-11-20T17:00:06.882Z,96588.43
2018-11-20T17:03:14.283Z,96589.88
2018-11-20T17:06:02.296Z,96588.23
2018-11-20T17:09:09.503Z,96592.30
2018-11-20T17:11:57.744Z,96589.69
2018-11-20T17:14:46.035Z,96575.30
2018-11-20T17:17:34.110Z,96581.98
2018-11-20T17:20:22.065Z,96574.30
2018-11-20T17:23:09.997Z,96566.98
2018-11-20T17:25:56.408Z,96561.95
2018-11-20T17:28:50.857Z,96558.16
2018-11-20T17:31:29.240Z,96556.14
2018-11-20T17:34:36.378Z,96555.30
2018-11-20T17:37:24.426Z,96553.44
2018-11-20T17:43:06.058Z,96545.08
2018-11-20T17:46:00.778Z,96550.59
2018-11-20T17:48:41.676Z,96560.41
2018-11-20T17:51:30.001Z,96586.02
2018-11-20T17:54:18.089Z,96595.30
2018-11-20T17:57:06.717Z,96590.91
2018-11-20T17:59:54.624Z,96597.69
2018-11-20T18:06:08.758Z,96601.75
2018-11-20T18:09:16.074Z,96609.20
2018-11-20T18:12:04.093Z,96608.37
2018-11-20T18:15:11.244Z,96610.56
2018-11-20T18:17:59.428Z,96613.40
2018-11-20T18:21:06.667Z,96602.78
2018-11-20T18:23:54.869Z,96600.47
2018-11-20T18:27:02.281Z,96590.56
2018-11-20T18:29:47.145Z,96589.09
2018-11-20T18:32:54.256Z,96581.50
2018-11-20T18:36:01.475Z,96573.35
2018-11-20T18:39:10.571Z,96569.09
2018-11-20T18:42:18.412Z,96553.61
2018-11-20T18:45:09.115Z,96543.38
2018-11-20T18:47:57.087Z,96535.16
2018-11-20T18:50:45.007Z,96534.27
2018-11-20T18:53:52.491Z,96548.58
2018-11-20T18:56:59.737Z,96554.41
2018-11-20T18:59:48.163Z,96577.15
2018-11-20T19:02:36.291Z,96564.00
2018-11-20T19:05:24.890Z,96564.31
2018-11-20T19:11:26.399Z,96599.44
2018-11-20T19:14:16.996Z,96610.69
2018-11-20T19:19:48.042Z,96630.04
2018-11-20T19:22:55.476Z,96626.94
2018-11-20T19:25:43.419Z,96624.33
2018-11-20T19:28:33.769Z,96628.91
2018-11-20T19:31:41.695Z,96620.59
2018-11-20T19:34:29.359Z,96623.20
2018-11-20T19:37:38.352Z,96613.59
2018-11-20T19:40:45.823Z,96618.30
2018-11-20T19:43:46.251Z,96608.23
2018-11-20T19:46:49.426Z,96614.17
2018-11-20T19:52:50.351Z,96635.65
2018-11-20T19:55:38.702Z,96640.03
2018-11-20T19:58:23.518Z,96644.55
2018-11-20T20:01:10.382Z,96632.97
2018-11-20T20:03:58.567Z,96631.72
2018-11-20T20:07:03.119Z,96655.45
2018-11-20T20:09:49.814Z,96672.54
2018-11-20T20:12:38.425Z,96673.89
2018-11-20T20:15:36.219Z,96709.39
2018-11-20T20:18:24.214Z,96706.27
2018-11-20T20:21:32.558Z,96717.75
2018-11-20T20:24:32.958Z,96726.80
2018-11-20T20:27:21.021Z,96724.80
2018-11-20T20:30:28.301Z,96718.92
2018-11-20T20:36:22.240Z,96717.52
2018-11-20T20:39:19.567Z,96713.78
2018-11-20T20:42:08.020Z,96701.97
2018-11-20T20:45:15.352Z,96690.43
2018-11-20T20:47:56.449Z,96702.62
2018-11-20T20:51:03.774Z,96694.49
2018-11-20T20:53:52.016Z,96693.46
2018-11-20T20:56:40.099Z,96687.30
2018-11-20T20:59:51.415Z,96684.27
2018-11-20T21:02:39.542Z,96690.95
2018-11-20T21:05:48.175Z,96693.01
2018-11-20T21:08:48.603Z,96706.27
2018-11-20T21:11:56.092Z,96702.47
2018-11-20T21:14:44.245Z,96706.59
2018-11-20T21:17:32.296Z,96709.95
2018-11-20T21:20:20.564Z,96706.95
2018-11-20T21:23:27.711Z,96704.70
2018-11-20T21:32:34.750Z,96726.19
2018-11-20T21:38:14.921Z,96731.85
2018-11-20T21:41:12.532Z,96737.49
2018-11-20T21:44:00.627Z,96748.43
2018-11-20T21:46:48.468Z,96750.52
2018-11-20T21:49:36.816Z,96750.58
2018-11-20T21:52:44.344Z,96771.22
2018-11-20T21:55:32.292Z,96772.95
2018-11-20T21:58:35.685Z,96779.16
2018-11-20T22:01:26.142Z,96776.13
2018-11-20T22:04:33.427Z,96777.53
2018-11-20T22:07:21.385Z,96779.63
2018-11-20T22:10:08.389Z,96773.75
2018-11-20T22:12:56.304Z,96781.88
2018-11-20T22:16:03.588Z,96789.94
2018-11-20T22:18:51.639Z,96797.88
2018-11-20T22:21:29.037Z,96811.62
2018-11-20T22:24:16.979Z,96804.92
2018-11-20T22:29:58.609Z,96798.28
2018-11-20T22:33:05.813Z,96812.19
2018-11-20T22:35:53.829Z,96818.38
2018-11-20T22:41:26.563Z,96834.16
2018-11-20T22:44:33.723Z,96841.29
2018-11-20T22:47:33.680Z,96827.17
2018-11-20T22:53:53.700Z,96824.72
2018-11-20T22:59:41.924Z,96818.44
2018-11-20T23:05:18.646Z,96830.80
2018-11-20T23:08:07.080Z,96842.38
2018-11-20T23:10:55.300Z,96835.29
2018-11-20T23:13:44.132Z,96813.83
2018-11-20T23:18:47.706Z,96821.91
2018-11-20T23:27:31.763Z,96835.02
2018-11-20T23:30:01.409Z,96824.75
2018-11-20T23:32:49.712Z,96826.49
2018-11-20T23:35:18.771Z,96826.67
2018-11-20T23:40:55.239Z,96829.14
2018-11-20T23:43:24.195Z,96826.25
2018-11-20T23:46:12.476Z,96835.05
2018-11-20T23:49:01.869Z,96823.28
2018-11-20T23:51:50.246Z,96822.95
2018-11-20T23:56:57.917Z,96806.89
2018-11-20T23:59:46.301Z,96805.09
